Time;durP1;ratioP1;P1;durP2;ratioP2;P2;SDS_P1;SDS_P2;PMS_P1;PMS_P2;Temp;Humidity;BMP_temperature;BMP_pressure;BME280_temperature;BME280_humidity;BME280_pressure;Samples;Min_cycle;Max_cycle;Signal;HPM_P1;HPM_P2
2023/06/09 00:01:44;;;;;;;21.73;4.82;;;;;;;9.83;55.93;101824.44;4967595;28;20093;-76
2023/06/09 00:04:13;;;;;;;16.73;3.10;;;;;;;9.83;56.27;101834.88;4948123;28;20069;-77
2023/06/09 00:06:39;;;;;;;15.43;4.53;;;;;;;9.97;55.86;101838.06;4962754;28;20126;-76
2023/06/09 00:09:07;;;;;;;9.02;3.35;;;;;;;10.05;55.40;101825.66;4965499;28;20130;-77
2023/06/09 00:11:33;;;;;;;20.55;3.33;;;;;;;9.65;56.96;101826.50;4959956;28;20082;-69
2023/06/09 00:13:59;;;;;;;12.82;3.97;;;;;;;9.79;56.35;101816.66;4962613;28;20038;-69
2023/06/09 00:16:26;;;;;;;12.95;3.20;;;;;;;9.62;56.84;101812.66;4958474;28;20038;-66
2023/06/09 00:18:52;;;;;;;11.63;4.22;;;;;;;9.72;56.55;101812.44;4962206;28;20081;-70
2023/06/09 00:21:21;;;;;;;17.35;4.30;;;;;;;9.83;56.19;101817.44;4945786;28;20149;-68
2023/06/09 00:23:48;;;;;;;13.23;4.47;;;;;;;9.80;56.41;101825.34;4960161;28;20052;-68
2023/06/09 00:26:14;;;;;;;11.95;3.88;;;;;;;9.91;55.97;101817.28;4963888;28;20038;-75
2023/06/09 00:28:43;;;;;;;13.23;3.65;;;;;;;9.77;55.96;101821.03;4950665;28;20439;-76
2023/06/09 00:31:09;;;;;;;8.82;2.95;;;;;;;9.58;56.98;101814.47;4967428;28;20077;-78
2023/06/09 00:33:35;;;;;;;9.23;3.58;;;;;;;9.85;56.33;101812.19;4948167;28;20141;-80
2023/06/09 00:36:00;;;;;;;15.90;4.80;;;;;;;9.67;56.67;101809.06;4955801;28;20049;-72
2023/06/09 00:38:28;;;;;;;21.23;4.80;;;;;;;9.93;55.87;101805.91;4960990;28;20137;-71
2023/06/09 00:40:54;;;;;;;16.42;4.80;;;;;;;9.98;55.56;101804.06;4962763;28;20049;-71
2023/06/09 00:43:19;;;;;;;20.42;5.38;;;;;;;9.97;55.72;101817.16;4962293;28;20065;-72
2023/06/09 00:45:45;;;;;;;15.32;4.05;;;;;;;9.94;55.98;101818.06;4958188;28;20045;-72
2023/06/09 00:48:11;;;;;;;16.42;4.03;;;;;;;9.64;56.91;101818.72;4949081;28;20084;-70
2023/06/09 00:50:39;;;;;;;23.95;4.55;;;;;;;9.90;56.30;101820.78;4959906;28;20069;-72
2023/06/09 00:53:07;;;;;;;9.98;4.03;;;;;;;9.94;56.02;101825.03;4947458;28;20161;-74
2023/06/09 00:55:34;;;;;;;10.48;3.95;;;;;;;9.88;56.44;101830.41;4942446;28;20162;-73
2023/06/09 00:58:01;;;;;;;14.70;5.60;;;;;;;10.07;55.70;101826.50;4961129;28;20096;-73
2023/06/09 01:00:28;;;;;;;17.63;4.70;;;;;;;10.08;55.60;101828.22;4962556;28;20460;-71
2023/06/09 01:03:00;;;;;;;13.48;5.22;;;;;;;10.01;55.58;101830.13;4946765;28;20042;-73
2023/06/09 01:05:36;;;;;;;18.88;5.25;;;;;;;9.78;56.51;101817.50;4942149;28;20054;-71
2023/06/09 01:08:13;;;;;;;16.98;5.18;;;;;;;9.88;56.17;101817.34;4946739;28;20030;-69
2023/06/09 01:11:05;;;;;;;14.80;6.13;;;;;;;9.98;55.67;101822.34;4944545;28;20054;-71
2023/06/09 01:13:45;;;;;;;12.20;4.60;;;;;;;9.87;56.40;101813.03;4959832;28;20141;-71
2023/06/09 01:16:26;;;;;;;12.65;4.88;;;;;;;9.92;55.90;101821.59;4964914;28;20030;-71
2023/06/09 01:18:52;;;;;;;24.10;5.15;;;;;;;10.00;56.11;101819.69;4947729;28;20054;-70
2023/06/09 01:21:40;;;;;;;13.25;3.88;;;;;;;9.91;56.19;101817.28;4962602;28;20041;-73
2023/06/09 01:24:37;;;;;;;11.68;4.15;;;;;;;9.83;56.46;101819.19;4943678;28;20369;-75
2023/06/09 01:27:07;;;;;;;15.32;3.55;;;;;;;9.94;56.27;101814.59;4965644;28;20061;-75
2023/06/09 01:29:34;;;;;;;11.05;3.67;;;;;;;10.02;56.02;101813.53;4967937;28;20550;-72
2023/06/09 01:32:03;;;;;;;9.68;3.60;;;;;;;9.85;56.63;101806.97;4968342;28;20042;-70
2023/06/09 01:34:29;;;;;;;9.30;3.17;;;;;;;9.81;56.92;101821.84;4944177;28;20182;-72
2023/06/09 01:36:55;;;;;;;11.43;4.13;;;;;;;9.84;56.57;101820.94;4964149;28;20113;-71
2023/06/09 01:39:21;;;;;;;6.43;2.85;;;;;;;9.89;56.56;101816.47;4943800;28;20092;-74
2023/06/09 01:41:46;;;;;;;10.65;3.72;;;;;;;9.90;56.82;101819.06;4961841;28;20347;-71
2023/06/09 01:44:12;;;;;;;15.50;4.93;;;;;;;9.88;56.52;101812.13;4947357;28;20458;-74
2023/06/09 01:46:37;;;;;;;19.38;3.70;;;;;;;9.92;56.57;101819.88;4957567;28;20108;-72
2023/06/09 01:49:24;;;;;;;9.38;3.97;;;;;;;9.98;56.28;101817.09;4958586;28;20518;-70
2023/06/09 01:51:52;;;;;;;12.90;3.63;;;;;;;9.75;56.95;101811.50;4975412;28;20153;-72
2023/06/09 01:54:35;;;;;;;13.60;3.40;;;;;;;9.90;56.27;101810.34;4959435;28;20265;-70
2023/06/09 01:57:07;;;;;;;14.52;3.75;;;;;;;9.89;56.65;101806.03;4954137;28;20095;-71
2023/06/09 01:59:40;;;;;;;11.88;3.65;;;;;;;9.86;56.45;101803.50;4948596;28;20080;-71
2023/06/09 02:02:09;;;;;;;14.13;4.57;;;;;;;9.80;56.29;101801.84;4948805;28;20100;-70
2023/06/09 02:04:36;;;;;;;13.15;4.22;;;;;;;9.54;57.29;101799.75;4959124;28;20109;-70
2023/06/09 02:07:04;;;;;;;9.80;4.00;;;;;;;9.44;57.88;101799.09;4965937;28;20272;-70
2023/06/09 02:09:30;;;;;;;11.00;4.03;;;;;;;9.81;56.71;101795.72;4971205;28;20089;-70
2023/06/09 02:11:56;;;;;;;14.95;6.40;;;;;;;9.70;57.29;101797.69;4963201;28;20038;-71
2023/06/09 02:14:22;;;;;;;17.95;4.88;;;;;;;9.57;58.08;101807.56;4965496;28;20040;-70
2023/06/09 02:16:48;;;;;;;19.13;5.70;;;;;;;9.76;57.34;101797.56;4964593;28;20383;-70
2023/06/09 02:19:16;;;;;;;16.85;4.40;;;;;;;9.81;57.06;101800.94;4949425;28;20042;-70
2023/06/09 02:21:41;;;;;;;13.18;5.15;;;;;;;9.75;56.85;101801.06;4962275;28;20153;-70
2023/06/09 02:24:07;;;;;;;22.20;5.25;;;;;;;9.58;57.46;101798.81;4947397;28;20050;-71
2023/06/09 02:26:34;;;;;;;14.50;5.30;;;;;;;9.72;57.44;101801.13;4963659;28;20058;-71
2023/06/09 02:29:00;;;;;;;12.75;5.53;;;;;;;9.84;56.79;101794.81;4963951;28;20774;-71
2023/06/09 02:31:30;;;;;;;14.75;5.93;;;;;;;9.57;58.14;101807.56;4964775;28;20042;-70
2023/06/09 02:33:56;;;;;;;18.83;6.65;;;;;;;9.89;56.37;101803.41;4963807;28;20040;-70
2023/06/09 02:36:21;;;;;;;13.82;4.90;;;;;;;9.84;56.97;101811.34;4951034;28;20038;-71
2023/06/09 02:38:47;;;;;;;16.58;5.53;;;;;;;9.77;57.36;101799.28;4945685;28;20062;-71
2023/06/09 02:41:12;;;;;;;16.10;5.68;;;;;;;9.68;57.83;101795.13;4966737;28;20126;-71
2023/06/09 02:43:38;;;;;;;13.95;6.50;;;;;;;9.67;57.96;101797.75;4959971;28;20045;-72
2023/06/09 02:46:04;;;;;;;13.23;5.85;;;;;;;9.55;58.49;101791.91;4966869;28;20037;-72
2023/06/09 02:48:30;;;;;;;8.57;5.78;;;;;;;9.67;58.23;101788.16;4963594;28;20137;-73
2023/06/09 02:50:56;;;;;;;14.45;5.28;;;;;;;9.92;57.77;101793.75;4963423;28;20117;-73
2023/06/09 02:53:23;;;;;;;15.82;4.88;;;;;;;9.93;57.74;101792.84;4963236;28;20042;-70
2023/06/09 02:55:49;;;;;;;13.30;5.50;;;;;;;9.88;58.53;101793.84;4961949;28;20690;-71
2023/06/09 02:58:19;;;;;;;14.50;5.15;;;;;;;9.95;58.24;101791.06;4948488;28;20499;-71
2023/06/09 03:00:50;;;;;;;14.68;4.95;;;;;;;10.00;58.35;101788.34;4942588;28;20030;-71
2023/06/09 03:03:17;;;;;;;13.13;4.63;;;;;;;10.15;58.68;101785.38;4945843;28;20033;-71
2023/06/09 03:05:44;;;;;;;16.75;5.47;;;;;;;10.19;58.27;101789.66;4964587;28;20077;-73
2023/06/09 03:08:10;;;;;;;17.98;4.78;;;;;;;10.21;57.94;101795.69;4965345;28;20113;-72
2023/06/09 03:10:37;;;;;;;15.15;4.93;;;;;;;10.21;58.11;101793.09;4943021;28;20026;-72
2023/06/09 03:13:03;;;;;;;19.02;5.07;;;;;;;10.14;58.49;101793.25;4967217;28;20034;-72
2023/06/09 03:15:29;;;;;;;20.58;5.35;;;;;;;10.27;57.93;101799.06;4953160;28;20026;-78
2023/06/09 03:17:57;;;;;;;17.52;5.43;;;;;;;10.25;57.88;101790.38;4956589;28;20084;-78
2023/06/09 03:20:24;;;;;;;14.57;4.35;;;;;;;9.93;58.87;101784.16;4952539;28;20084;-68
2023/06/09 03:22:54;;;;;;;15.15;4.50;;;;;;;9.95;58.58;101782.38;4958943;28;20121;-75
2023/06/09 03:25:21;;;;;;;12.88;4.43;;;;;;;10.10;58.21;101792.47;4978783;28;20108;-74
2023/06/09 03:27:47;;;;;;;15.25;4.97;;;;;;;10.10;58.13;101786.38;4962086;28;20042;-73
2023/06/09 03:30:14;;;;;;;17.48;4.05;;;;;;;10.08;57.88;101786.44;4967653;28;20598;-70
2023/06/09 03:32:44;;;;;;;13.65;4.80;;;;;;;10.16;57.63;101784.47;4945267;28;20834;-71
2023/06/09 03:35:10;;;;;;;13.57;4.28;;;;;;;9.88;58.77;101791.22;4961897;28;20768;-70
2023/06/09 03:37:36;;;;;;;13.15;4.07;;;;;;;9.98;58.30;101788.38;4963850;28;20385;-71
2023/06/09 03:40:04;;;;;;;20.90;4.05;;;;;;;9.97;58.77;101786.69;4962786;28;20118;-70
2023/06/09 03:42:29;;;;;;;12.57;4.57;;;;;;;10.15;57.59;101787.16;4962572;28;20030;-70
2023/06/09 03:44:58;;;;;;;16.08;4.47;;;;;;;10.00;58.47;101788.34;4920772;28;20042;-71
2023/06/09 03:47:25;;;;;;;14.00;3.90;;;;;;;10.20;57.83;101780.06;4977164;28;20088;-70
2023/06/09 03:49:51;;;;;;;12.13;3.65;;;;;;;10.18;57.93;101784.44;4961140;28;20743;-69
2023/06/09 03:52:17;;;;;;;7.20;4.13;;;;;;;10.17;58.04;101783.59;4967916;28;20034;-76
2023/06/09 03:54:43;;;;;;;13.07;3.78;;;;;;;10.27;57.96;101783.38;4940606;28;20045;-71
2023/06/09 03:57:10;;;;;;;16.75;3.78;;;;;;;10.35;57.98;101782.28;4963596;28;20030;-72
2023/06/09 03:59:36;;;;;;;10.77;5.25;;;;;;;10.36;57.68;101784.00;4940123;28;20072;-71
2023/06/09 04:02:03;;;;;;;8.48;4.00;;;;;;;10.52;57.12;101784.47;4961725;28;20046;-72
2023/06/09 04:04:28;;;;;;;19.92;4.63;;;;;;;10.27;58.02;101780.75;4960985;28;20048;-73
2023/06/09 04:06:56;;;;;;;14.15;3.30;;;;;;;10.31;58.04;101788.50;4963177;28;20029;-72
2023/06/09 04:09:22;;;;;;;15.95;4.45;;;;;;;10.43;57.80;101784.72;4961727;28;20042;-72
2023/06/09 04:11:48;;;;;;;13.35;3.70;;;;;;;10.58;57.17;101781.72;4945556;28;20088;-72
2023/06/09 04:14:14;;;;;;;7.00;3.58;;;;;;;10.71;56.87;101774.41;4946609;28;20117;-73
2023/06/09 04:16:39;;;;;;;14.80;3.97;;;;;;;10.61;57.28;101778.16;4963252;28;20125;-72
2023/06/09 04:19:06;;;;;;;9.50;4.07;;;;;;;10.55;57.27;101788.78;4961897;28;20035;-72
2023/06/09 04:21:33;;;;;;;10.52;4.10;;;;;;;10.87;56.42;101780.13;4960770;28;20376;-73
2023/06/09 04:23:58;;;;;;;9.30;4.10;;;;;;;11.01;56.10;101791.06;4962004;28;20319;-73
2023/06/09 04:26:25;;;;;;;12.13;4.18;;;;;;;11.04;56.02;101798.84;4973438;28;20026;-73
2023/06/09 04:28:53;;;;;;;15.73;4.25;;;;;;;11.24;55.61;101800.91;4960432;28;20541;-74
2023/06/09 04:31:23;;;;;;;19.42;4.63;;;;;;;11.37;54.97;101801.41;4960634;28;20038;-68
2023/06/09 04:33:53;;;;;;;9.80;4.38;;;;;;;11.38;55.11;101797.91;4959646;28;20520;-69
2023/06/09 04:36:20;;;;;;;14.52;3.58;;;;;;;11.11;56.04;101794.31;4961609;28;20035;-69
2023/06/09 04:38:47;;;;;;;6.93;3.75;;;;;;;11.40;55.09;101798.72;4958011;28;20093;-69
2023/06/09 04:41:12;;;;;;;11.57;3.80;;;;;;;11.57;54.41;101800.81;4961821;28;20037;-69
2023/06/09 04:43:41;;;;;;;11.80;3.45;;;;;;;11.54;55.02;101798.31;4957790;28;20038;-69
2023/06/09 04:46:09;;;;;;;14.68;4.10;;;;;;;11.52;55.33;101788.78;4952117;28;20125;-70
2023/06/09 04:48:35;;;;;;;9.95;3.58;;;;;;;11.59;54.89;101796.41;4951977;28;20056;-80
2023/06/09 04:51:01;;;;;;;12.18;4.30;;;;;;;11.55;55.21;101793.91;4969284;28;20594;-70
2023/06/09 04:53:30;;;;;;;13.77;4.20;;;;;;;11.61;54.73;101798.97;4951499;28;20096;-71
2023/06/09 04:55:56;;;;;;;8.30;3.28;;;;;;;11.94;53.78;101796.28;4974584;28;20045;-70
2023/06/09 04:58:28;;;;;;;11.15;3.65;;;;;;;12.04;53.97;101795.94;4961503;28;20125;-69
2023/06/09 05:00:55;;;;;;;19.00;4.10;;;;;;;12.06;53.99;101798.50;4949260;28;20029;-72
2023/06/09 05:03:23;;;;;;;9.27;3.10;;;;;;;12.60;53.37;101789.75;4941774;28;20049;-73
2023/06/09 05:05:49;;;;;;;12.55;3.13;;;;;;;13.62;49.82;101799.28;4961150;28;20034;-74
2023/06/09 05:08:16;;;;;;;12.50;3.08;;;;;;;14.85;46.54;101804.84;4965492;28;20168;-72
2023/06/09 05:10:42;;;;;;;9.18;3.00;;;;;;;15.28;45.32;101803.84;4945891;28;20030;-75
2023/06/09 05:13:09;;;;;;;7.78;3.70;;;;;;;17.06;41.69;101802.22;4959949;28;20041;-73
2023/06/09 05:15:35;;;;;;;10.27;3.28;;;;;;;17.31;40.20;101808.81;4943269;28;20038;-74
2023/06/09 05:18:02;;;;;;;11.00;3.63;;;;;;;17.43;40.07;101805.53;4944612;28;20069;-75
2023/06/09 05:20:29;;;;;;;9.77;3.88;;;;;;;17.73;39.00;101803.00;4963296;28;20057;-72
2023/06/09 05:22:54;;;;;;;4.25;2.47;;;;;;;18.18;38.57;101797.84;4941441;28;20084;-69
2023/06/09 05:25:20;;;;;;;12.45;2.97;;;;;;;18.00;38.82;101797.94;4962010;28;20120;-71
2023/06/09 05:27:46;;;;;;;11.40;2.92;;;;;;;18.45;38.19;101806.88;4939001;28;20042;-67
2023/06/09 05:30:14;;;;;;;6.55;2.72;;;;;;;18.64;36.80;101806.59;4974114;28;20034;-67
2023/06/09 05:32:40;;;;;;;13.55;3.00;;;;;;;19.67;36.96;101808.25;4957723;28;20065;-68
2023/06/09 05:35:08;;;;;;;5.18;2.88;;;;;;;19.36;36.71;101811.13;4961152;28;20038;-69
2023/06/09 05:37:35;;;;;;;6.13;2.72;;;;;;;18.66;37.28;101817.13;4960928;28;20088;-70
2023/06/09 05:40:01;;;;;;;8.82;2.83;;;;;;;18.75;36.68;101810.44;4957959;28;20432;-68
2023/06/09 05:42:26;;;;;;;11.10;2.55;;;;;;;19.21;36.70;101808.50;4962516;28;20041;-69
2023/06/09 05:44:52;;;;;;;9.00;2.65;;;;;;;20.01;34.56;101807.88;4962161;28;20057;-68
2023/06/09 05:47:17;;;;;;;7.30;2.45;;;;;;;20.49;33.64;101825.03;4963712;28;20041;-70
2023/06/09 05:49:42;;;;;;;8.77;3.08;;;;;;;20.42;34.04;101823.75;4951774;28;20097;-69
2023/06/09 05:52:08;;;;;;;14.10;2.78;;;;;;;20.95;33.18;101826.38;4953485;28;20038;-69
2023/06/09 05:54:33;;;;;;;12.55;3.65;;;;;;;21.08;33.12;101827.22;4961149;28;20073;-69
2023/06/09 05:56:59;;;;;;;9.43;2.40;;;;;;;21.38;32.23;101822.50;4960689;28;20058;-70
2023/06/09 05:59:25;;;;;;;3.80;2.33;;;;;;;21.62;31.70;101823.44;4961158;28;20451;-68
2023/06/09 06:01:50;;;;;;;11.20;3.15;;;;;;;21.84;30.96;101817.41;4963332;28;20042;-68
2023/06/09 06:04:17;;;;;;;6.35;2.10;;;;;;;21.86;30.70;101822.63;4960467;28;20422;-68
2023/06/09 06:06:43;;;;;;;7.88;2.35;;;;;;;21.88;31.96;101826.00;4963441;28;20555;-69
2023/06/09 06:09:08;;;;;;;8.95;2.15;;;;;;;22.09;30.91;101818.28;4958920;28;20061;-71
2023/06/09 06:11:34;;;;;;;10.20;2.58;;;;;;;22.23;31.45;101815.44;4945307;28;20725;-70
2023/06/09 06:13:59;;;;;;;6.80;2.25;;;;;;;22.67;29.91;101819.19;4963861;28;20563;-69
2023/06/09 06:16:25;;;;;;;9.50;3.08;;;;;;;22.64;29.80;101819.44;4963699;28;20034;-69
2023/06/09 06:18:51;;;;;;;8.18;3.00;;;;;;;22.49;30.14;101821.44;4962835;28;20249;-70
2023/06/09 06:21:18;;;;;;;14.18;2.63;;;;;;;22.90;29.60;101819.28;4953467;28;20309;-69
2023/06/09 06:23:44;;;;;;;5.85;2.15;;;;;;;22.89;29.53;101823.72;4958316;28;20437;-69
2023/06/09 06:26:10;;;;;;;9.30;2.78;;;;;;;23.09;29.75;101818.66;4959690;28;20088;-67
2023/06/09 06:28:35;;;;;;;8.15;2.22;;;;;;;23.91;28.75;101821.88;4958553;28;20057;-66
2023/06/09 06:31:02;;;;;;;8.30;2.20;;;;;;;24.59;28.54;101821.56;4962942;28;20053;-69
2023/06/09 06:33:30;;;;;;;9.00;2.53;;;;;;;24.80;27.27;101830.44;4962037;28;20092;-69
2023/06/09 06:35:56;;;;;;;12.98;2.53;;;;;;;24.03;27.84;101828.88;4955776;28;20062;-69
2023/06/09 06:38:22;;;;;;;13.38;2.17;;;;;;;22.72;30.39;101833.03;4963117;28;20038;-70
2023/06/09 06:40:48;;;;;;;8.35;2.63;;;;;;;23.42;29.42;101831.16;4959071;28;20030;-68
2023/06/09 06:43:14;;;;;;;9.10;2.38;;;;;;;23.75;29.60;101838.28;4960071;28;20034;-68
2023/06/09 06:46:05;;;;;;;7.57;2.03;;;;;;;23.81;28.21;101834.22;4961731;28;20115;-69
2023/06/09 06:48:32;;;;;;;14.23;2.53;;;;;;;24.46;28.23;101831.59;4961952;28;20052;-67
2023/06/09 06:50:57;;;;;;;7.65;2.55;;;;;;;24.04;28.45;101837.72;4962659;28;20026;-68
2023/06/09 06:53:24;;;;;;;9.38;2.15;;;;;;;23.74;28.69;101833.88;4959784;28;20519;-67
2023/06/09 06:55:50;;;;;;;7.72;2.58;;;;;;;24.41;27.68;101830.19;4963543;28;20038;-69
2023/06/09 06:58:16;;;;;;;9.32;2.13;;;;;;;24.87;27.14;101829.91;4960689;28;20655;-68
2023/06/09 07:00:42;;;;;;;12.13;3.35;;;;;;;24.98;26.95;101821.84;4963229;28;20027;-68
2023/06/09 07:03:12;;;;;;;5.75;1.90;;;;;;;24.60;28.41;101823.28;4960972;28;20027;-70
2023/06/09 07:05:38;;;;;;;7.03;1.75;;;;;;;24.41;27.77;101807.91;4960694;28;20502;-69
2023/06/09 07:08:04;;;;;;;9.82;2.50;;;;;;;24.72;26.99;101813.34;4934294;28;20035;-71
2023/06/09 07:10:31;;;;;;;4.50;1.85;;;;;;;25.07;26.70;101821.03;4978326;28;20030;-71
2023/06/09 07:12:56;;;;;;;8.23;1.90;;;;;;;24.90;26.72;101818.94;4963711;28;20045;-71
2023/06/09 07:15:22;;;;;;;5.13;2.10;;;;;;;25.28;26.75;101806.72;4957367;28;20042;-70
2023/06/09 07:17:50;;;;;;;9.45;2.63;;;;;;;25.72;26.38;101813.47;4965434;28;20034;-69
2023/06/09 07:20:15;;;;;;;9.82;2.63;;;;;;;25.66;25.98;101811.34;4960378;28;20050;-70
2023/06/09 07:22:41;;;;;;;8.80;3.15;;;;;;;25.41;26.86;101805.50;4964788;28;20109;-69
2023/06/09 07:25:08;;;;;;;4.88;1.88;;;;;;;26.80;24.30;101808.91;4960827;28;20428;-69
2023/06/09 07:27:34;;;;;;;8.52;2.60;;;;;;;26.39;25.43;101810.97;4970063;28;20033;-69
2023/06/09 07:30:00;;;;;;;11.18;2.83;;;;;;;25.40;26.22;101809.19;4961669;28;20518;-69
2023/06/09 07:32:26;;;;;;;8.30;2.58;;;;;;;26.27;25.68;101811.13;4962217;28;20341;-71
2023/06/09 07:34:53;;;;;;;7.32;2.72;;;;;;;26.61;24.88;101816.03;4960882;28;20524;-71
2023/06/09 07:37:19;;;;;;;7.65;2.10;;;;;;;25.72;26.12;101815.31;4957133;28;21878;-70
2023/06/09 07:39:44;;;;;;;6.35;2.10;;;;;;;25.82;26.49;101821.53;4961149;28;20068;-70
2023/06/09 07:42:10;;;;;;;7.60;3.17;;;;;;;25.73;26.57;101823.19;4962566;28;20080;-71
2023/06/09 07:44:36;;;;;;;4.72;2.40;;;;;;;25.39;26.36;101820.00;4958498;28;20034;-70
2023/06/09 07:47:02;;;;;;;10.82;3.40;;;;;;;26.45;25.26;101815.78;4963911;28;20042;-71
2023/06/09 07:49:27;;;;;;;8.70;2.85;;;;;;;26.93;25.30;101814.81;4960613;28;20061;-70
2023/06/09 07:51:53;;;;;;;5.72;2.20;;;;;;;27.59;23.20;101819.16;4961903;28;20030;-71
2023/06/09 07:54:18;;;;;;;7.47;2.72;;;;;;;27.52;23.85;101808.19;4959825;28;21594;-70
2023/06/09 07:56:48;;;;;;;10.00;2.80;;;;;;;26.27;25.69;101811.13;4961503;28;20507;-70
2023/06/09 07:59:15;;;;;;;8.27;3.45;;;;;;;26.30;25.57;101818.03;4956389;28;20042;-71
2023/06/09 08:01:40;;;;;;;12.07;2.70;;;;;;;26.64;25.45;101817.56;4949947;28;20038;-70
2023/06/09 08:04:06;;;;;;;4.75;2.35;;;;;;;27.44;24.21;101812.63;4953473;28;20042;-70
2023/06/09 08:06:33;;;;;;;10.15;2.83;;;;;;;27.39;24.27;101810.38;4956986;28;20030;-71
2023/06/09 08:08:59;;;;;;;10.73;3.38;;;;;;;26.99;24.73;101811.53;4956736;28;20064;-70
2023/06/09 08:11:26;;;;;;;7.88;2.97;;;;;;;27.19;25.12;101811.50;4959762;28;20460;-70
2023/06/09 08:13:51;;;;;;;12.35;3.60;;;;;;;26.94;25.09;101812.97;4958106;28;20069;-70
2023/06/09 08:16:17;;;;;;;9.65;2.28;;;;;;;26.59;25.82;101812.66;4950116;28;20169;-71
2023/06/09 08:18:43;;;;;;;8.23;3.20;;;;;;;27.34;24.66;101804.63;4959049;28;20038;-71
2023/06/09 08:21:11;;;;;;;6.38;2.90;;;;;;;27.86;23.83;101810.22;4960821;28;20137;-71
2023/06/09 08:23:36;;;;;;;9.13;4.30;;;;;;;28.11;23.92;101805.06;4957931;28;20569;-71
2023/06/09 08:26:02;;;;;;;10.30;2.95;;;;;;;28.13;23.27;101809.31;4958049;28;20046;-69
2023/06/09 08:28:28;;;;;;;5.75;2.67;;;;;;;28.07;24.42;101809.06;4954774;28;20053;-70
2023/06/09 08:30:53;;;;;;;6.47;2.15;;;;;;;27.98;24.04;101808.13;4952795;28;20030;-70
2023/06/09 08:33:19;;;;;;;5.47;3.15;;;;;;;28.34;23.34;101809.00;4954165;28;20154;-69
2023/06/09 08:35:44;;;;;;;7.80;2.97;;;;;;;28.51;22.69;101814.47;4957813;28;20042;-69
2023/06/09 08:38:10;;;;;;;6.90;3.10;;;;;;;28.56;22.50;101806.75;4957134;28;20456;-69
2023/06/09 08:40:35;;;;;;;7.05;2.83;;;;;;;28.43;23.32;101806.34;4956388;28;20463;-71
2023/06/09 08:43:03;;;;;;;7.63;3.10;;;;;;;27.81;23.82;101812.53;4958751;28;20038;-71
2023/06/09 08:45:33;;;;;;;7.20;2.83;;;;;;;28.42;23.12;101802.81;4956024;28;20038;-71
2023/06/09 08:48:00;;;;;;;7.38;3.15;;;;;;;27.73;23.42;101809.75;4957694;28;20053;-71
2023/06/09 08:50:30;;;;;;;10.55;3.08;;;;;;;27.13;24.41;101809.38;4970594;28;20066;-71
2023/06/09 08:52:57;;;;;;;7.80;2.30;;;;;;;28.51;22.56;101806.41;4956207;28;20145;-70
2023/06/09 08:55:22;;;;;;;8.93;2.97;;;;;;;28.74;22.70;101798.66;4954714;28;20777;-70
2023/06/09 08:57:49;;;;;;;7.47;3.22;;;;;;;28.80;22.24;101803.41;4956558;28;20070;-70
2023/06/09 09:00:15;;;;;;;8.13;2.80;;;;;;;28.92;23.50;101796.72;4954564;28;20064;-71
2023/06/09 09:02:43;;;;;;;6.18;2.40;;;;;;;28.35;23.36;101801.75;4956288;28;20038;-71
2023/06/09 09:05:10;;;;;;;13.88;3.85;;;;;;;27.91;24.14;101797.16;4958901;28;20097;-72
2023/06/09 09:07:35;;;;;;;7.30;3.10;;;;;;;28.90;22.92;101798.75;4956949;28;20217;-70
2023/06/09 09:10:01;;;;;;;8.23;2.97;;;;;;;29.04;22.47;101799.16;4956247;28;20502;-70
2023/06/09 09:12:27;;;;;;;8.80;3.00;;;;;;;29.38;22.70;101801.81;4955312;28;20034;-69
2023/06/09 09:14:52;;;;;;;6.05;3.03;;;;;;;29.34;21.42;101801.28;4954009;28;20077;-72
2023/06/09 09:17:18;;;;;;;9.75;2.47;;;;;;;29.88;21.26;101803.59;4957486;28;20619;-70
2023/06/09 09:19:48;;;;;;;7.47;2.28;;;;;;;30.47;20.96;101798.03;4955887;28;20857;-70
2023/06/09 09:22:14;;;;;;;5.63;2.57;;;;;;;29.56;21.52;101799.84;4957994;28;20030;-70
2023/06/09 09:24:46;;;;;;;7.85;3.35;;;;;;;28.35;23.60;101804.44;4951396;28;21477;-70
2023/06/09 09:27:17;;;;;;;5.72;2.60;;;;;;;28.27;23.86;101801.69;4948509;28;20661;-66
2023/06/09 09:29:43;;;;;;;7.60;3.17;;;;;;;27.53;24.77;101803.66;4950603;28;20082;-71
2023/06/09 09:32:09;;;;;;;10.18;3.65;;;;;;;27.40;25.12;101809.38;4957255;28;20045;-71
2023/06/09 09:34:35;;;;;;;9.27;4.18;;;;;;;27.31;24.87;101811.13;4953559;28;20052;-70
2023/06/09 09:37:02;;;;;;;11.93;3.45;;;;;;;26.84;24.48;101808.47;4956079;28;20320;-70
2023/06/09 09:39:27;;;;;;;8.18;3.55;;;;;;;27.28;25.17;101811.44;4952288;28;20122;-70
2023/06/09 09:42:02;;;;;;;8.02;3.50;;;;;;;25.74;26.77;101808.00;4956633;28;20046;-70
2023/06/09 09:44:36;;;;;;;6.03;2.78;;;;;;;26.28;27.55;101806.63;4954486;28;20130;-71
2023/06/09 09:47:04;;;;;;;7.15;2.42;;;;;;;26.35;24.99;101807.72;4971303;28;20034;-70
2023/06/09 09:49:29;;;;;;;7.68;3.08;;;;;;;26.29;26.10;101803.81;4955378;28;20073;-69
2023/06/09 09:51:58;;;;;;;4.68;3.10;;;;;;;26.03;26.39;101802.66;4956412;28;20145;-72
2023/06/09 09:54:26;;;;;;;7.97;3.67;;;;;;;25.51;28.20;101800.19;4954779;28;20128;-72
2023/06/09 09:56:55;;;;;;;5.97;2.60;;;;;;;25.60;27.95;101801.22;4964400;28;20046;-71
2023/06/09 09:59:21;;;;;;;6.50;2.90;;;;;;;25.73;26.07;101799.09;4954660;28;20121;-71
2023/06/09 10:01:48;;;;;;;7.93;2.92;;;;;;;25.59;27.34;101795.00;4959293;28;20034;-70
2023/06/09 10:04:15;;;;;;;11.75;4.13;;;;;;;25.37;27.52;101805.91;4955189;28;20696;-71
2023/06/09 10:06:43;;;;;;;4.72;2.47;;;;;;;25.64;26.92;101797.25;4958671;28;20432;-70
2023/06/09 10:09:09;;;;;;;4.53;2.47;;;;;;;25.73;27.07;101791.06;4958368;28;20359;-71
2023/06/09 10:11:37;;;;;;;7.85;2.92;;;;;;;26.16;25.16;101800.56;4947212;28;20447;-67
2023/06/09 10:14:03;;;;;;;8.25;2.28;;;;;;;26.61;25.78;101801.78;4955979;28;20444;-70
2023/06/09 10:16:29;;;;;;;6.97;2.42;;;;;;;26.52;25.00;101798.13;4939937;28;20034;-71
2023/06/09 10:18:55;;;;;;;8.93;3.20;;;;;;;26.54;24.58;101796.13;4958784;28;20074;-70
2023/06/09 10:21:22;;;;;;;9.88;2.78;;;;;;;26.63;26.25;101800.66;4959891;28;20053;-70
2023/06/09 10:23:48;;;;;;;10.10;3.53;;;;;;;26.33;27.19;101803.50;4959927;28;20050;-71
2023/06/09 10:26:14;;;;;;;8.55;2.95;;;;;;;26.17;25.15;101794.22;4961219;28;20058;-71
2023/06/09 10:28:39;;;;;;;10.70;3.25;;;;;;;25.95;27.64;101806.03;4967867;28;20073;-69
2023/06/09 10:31:11;;;;;;;10.98;3.83;;;;;;;25.94;25.24;101801.66;4970358;28;20064;-69
2023/06/09 10:33:40;;;;;;;5.50;2.65;;;;;;;25.77;26.04;101797.84;4964998;28;20240;-70
2023/06/09 10:36:05;;;;;;;6.38;3.08;;;;;;;25.81;27.32;101795.75;4962650;28;20084;-70
2023/06/09 10:38:39;;;;;;;9.80;3.20;;;;;;;26.40;26.62;101789.41;4961343;28;21012;-70
2023/06/09 10:41:05;;;;;;;7.05;2.97;;;;;;;26.57;26.07;101792.31;4966014;28;20034;-70
2023/06/09 10:43:44;;;;;;;8.77;3.08;;;;;;;26.46;25.67;101799.53;4960698;28;20053;-70
2023/06/09 10:46:12;;;;;;;7.07;3.75;;;;;;;26.41;25.72;101796.44;4953471;28;20034;-69
2023/06/09 10:48:48;;;;;;;12.40;3.65;;;;;;;26.01;26.92;101799.28;4955899;28;20050;-69
2023/06/09 10:51:34;;;;;;;7.07;3.58;;;;;;;25.74;27.43;101803.47;4964536;28;20423;-70
2023/06/09 10:54:12;;;;;;;10.60;3.53;;;;;;;26.17;26.46;101799.56;4966519;28;20039;-69
2023/06/09 10:56:40;;;;;;;9.88;3.72;;;;;;;26.16;26.19;101802.41;4962134;28;21166;-70
2023/06/09 10:59:26;;;;;;;8.45;5.00;;;;;;;26.49;26.33;101798.38;4949095;28;20034;-70
2023/06/09 11:02:01;;;;;;;6.53;3.35;;;;;;;26.90;25.55;101796.34;4935355;28;20100;-70
2023/06/09 11:04:44;;;;;;;5.80;2.50;;;;;;;27.01;26.12;101788.09;4954953;28;20300;-70
2023/06/09 11:07:10;;;;;;;6.05;3.38;;;;;;;27.30;25.63;101787.97;4960445;28;20038;-70
2023/06/09 11:09:36;;;;;;;5.57;3.38;;;;;;;26.93;25.47;101790.66;4957030;28;20855;-70
2023/06/09 11:12:01;;;;;;;8.48;3.63;;;;;;;26.93;25.14;101785.28;4961528;28;20048;-70
2023/06/09 11:14:59;;;;;;;7.47;2.67;;;;;;;27.28;25.51;101789.13;4958875;28;20046;-70
2023/06/09 11:17:36;;;;;;;9.52;3.00;;;;;;;26.56;24.84;101778.06;4955797;28;20423;-68
2023/06/09 11:20:05;;;;;;;6.90;3.65;;;;;;;25.86;25.47;101780.09;4960109;28;20090;-70
2023/06/09 11:22:32;;;;;;;7.88;3.25;;;;;;;26.58;26.00;101781.50;4958341;28;20797;-69
2023/06/09 11:24:58;;;;;;;7.65;4.07;;;;;;;26.54;25.94;101780.06;4960948;28;20134;-70
2023/06/09 11:27:24;;;;;;;7.07;3.58;;;;;;;27.06;25.15;101780.44;4974263;28;20113;-69